Time;durP1;ratioP1;P1;durP2;ratioP2;P2;SDS_P1;SDS_P2;PMS_P1;PMS_P2;Temp;Humidity;BMP_temperature;BMP_pressure;BME280_temperature;BME280_humidity;BME280_pressure;Samples;Min_cycle;Max_cycle;Signal;HPM_P1;HPM_P2
2023/04/30 00:00:21;;;;;;;7.70;7.00;;;13.40;91.80;;;;;;5083805;28;20179;-91
2023/04/30 00:02:47;;;;;;;7.63;7.00;;;13.40;92.20;;;;;;5083559;28;20195;-89
2023/04/30 00:05:13;;;;;;;8.20;7.47;;;13.40;92.50;;;;;;5084461;28;20303;-90
2023/04/30 00:07:41;;;;;;;8.70;7.97;;;13.40;92.20;;;;;;5083569;28;20555;-91
2023/04/30 00:10:10;;;;;;;7.77;7.13;;;13.40;92.70;;;;;;5066327;28;20224;-90
2023/04/30 00:12:37;;;;;;;7.40;6.80;;;13.40;92.00;;;;;;5066305;28;20240;-89
2023/04/30 00:15:03;;;;;;;9.33;8.53;;;13.40;93.10;;;;;;5083876;28;20197;-91
2023/04/30 00:17:38;;;;;;;8.87;7.97;;;13.40;91.00;;;;;;5069383;28;20211;-90
2023/04/30 00:20:07;;;;;;;8.60;7.80;;;13.50;90.80;;;;;;5068275;28;20182;-91
2023/04/30 00:22:33;;;;;;;8.07;7.33;;;13.40;91.30;;;;;;5083570;28;20681;-91
2023/04/30 00:24:59;;;;;;;7.97;7.30;;;13.40;91.30;;;;;;5083117;28;20194;-91
2023/04/30 00:27:25;;;;;;;8.53;7.63;;;13.40;91.10;;;;;;5065217;28;20181;-90
2023/04/30 00:29:51;;;;;;;8.47;7.67;;;13.40;91.30;;;;;;5083240;28;20179;-88
2023/04/30 00:32:16;;;;;;;7.77;7.17;;;13.30;92.00;;;;;;5084163;28;20213;-91
2023/04/30 00:34:42;;;;;;;7.77;7.17;;;13.30;92.70;;;;;;5086392;28;20243;-90
2023/04/30 00:37:08;;;;;;;8.60;7.90;;;13.30;93.70;;;;;;5085972;28;20178;-89
2023/04/30 00:39:34;;;;;;;8.30;7.57;;;13.30;93.00;;;;;;5087239;28;20186;-89
2023/04/30 00:41:59;;;;;;;8.80;8.00;;;13.20;93.10;;;;;;5068942;28;20199;-89
2023/04/30 00:44:25;;;;;;;8.63;7.93;;;13.30;93.00;;;;;;5069424;28;20247;-91
2023/04/30 00:46:51;;;;;;;8.90;8.10;;;13.20;92.80;;;;;;5086757;28;20197;-89
2023/04/30 00:49:17;;;;;;;8.70;7.70;;;13.20;92.60;;;;;;5067440;28;20183;-90
2023/04/30 00:51:43;;;;;;;8.87;8.17;;;13.20;92.90;;;;;;5069689;28;20205;-91
2023/04/30 00:54:09;;;;;;;8.93;8.23;;;13.20;92.80;;;;;;5085503;28;20636;-91
2023/04/30 00:56:35;;;;;;;8.77;8.07;;;13.20;93.00;;;;;;5068717;28;20234;-90
2023/04/30 00:59:01;;;;;;;9.27;8.47;;;13.20;93.10;;;;;;5087240;28;20213;-90
2023/04/30 01:01:30;;;;;;;9.70;8.80;;;13.10;92.30;;;;;;5068103;28;20207;-90
2023/04/30 01:03:56;;;;;;;10.43;9.47;;;13.10;92.80;;;;;;5085543;28;20176;-90
2023/04/30 01:06:24;;;;;;;8.93;7.97;;;13.00;93.70;;;;;;5066390;28;20271;-89
2023/04/30 01:08:50;;;;;;;9.90;8.90;;;12.90;94.20;;;;;;5083254;28;20188;-91
2023/04/30 01:11:22;;;;;;;9.63;8.83;;;13.00;93.00;;;;;;5084546;28;20208;-91
2023/04/30 01:14:17;;;;;;;9.97;9.03;;;13.00;92.90;;;;;;5085057;28;20211;-91
2023/04/30 01:16:50;;;;;;;9.93;9.07;;;13.00;93.60;;;;;;5085752;28;20549;-90
2023/04/30 01:19:33;;;;;;;10.43;9.53;;;12.90;93.10;;;;;;5085677;28;20207;-89
2023/04/30 01:22:03;;;;;;;9.87;8.97;;;12.90;93.90;;;;;;5085403;28;20207;-91
2023/04/30 01:25:11;;;;;;;9.93;9.03;;;12.80;94.40;;;;;;5085955;28;20556;-90
2023/04/30 01:28:06;;;;;;;9.80;8.93;;;12.80;94.30;;;;;;5031247;28;20192;-90
2023/04/30 01:30:33;;;;;;;10.33;9.33;;;12.90;94.30;;;;;;5084593;28;20169;-90
2023/04/30 01:32:59;;;;;;;10.10;9.10;;;12.80;94.00;;;;;;5085082;28;20192;-91
2023/04/30 01:35:58;;;;;;;10.47;9.47;;;12.90;94.00;;;;;;5067556;28;20184;-90
2023/04/30 01:38:48;;;;;;;10.00;9.10;;;12.90;93.90;;;;;;5085157;28;20545;-90
2023/04/30 01:41:44;;;;;;;10.40;9.37;;;12.80;93.90;;;;;;5085364;28;20287;-90
2023/04/30 01:44:23;;;;;;;11.10;9.77;;;12.80;94.20;;;;;;5088454;28;20177;-90
2023/04/30 01:47:03;;;;;;;10.63;9.53;;;12.80;93.90;;;;;;5072197;28;20210;-91
2023/04/30 01:49:37;;;;;;;9.90;9.00;;;12.70;94.40;;;;;;5089069;28;20207;-94
2023/04/30 01:52:15;;;;;;;9.30;8.50;;;12.80;94.00;;;;;;5089905;28;20193;-90
2023/04/30 01:54:59;;;;;;;10.37;9.40;;;12.80;94.20;;;;;;5088118;28;20164;-91
2023/04/30 01:57:35;;;;;;;9.93;8.97;;;12.80;94.60;;;;;;5088417;28;20703;-91
2023/04/30 02:00:03;;;;;;;9.60;8.70;;;12.80;93.90;;;;;;5069575;28;20173;-93
2023/04/30 02:02:29;;;;;;;10.60;9.50;;;12.90;93.50;;;;;;5084541;28;20192;-94
2023/04/30 02:04:55;;;;;;;9.60;8.80;;;12.90;93.30;;;;;;5066642;28;20179;-91
2023/04/30 02:07:41;;;;;;;9.80;8.97;;;12.80;93.60;;;;;;5066608;28;20205;-93
2023/04/30 02:10:08;;;;;;;10.33;9.50;;;12.80;93.40;;;;;;5084987;28;20191;-89
2023/04/30 02:12:34;;;;;;;10.00;9.13;;;12.80;93.80;;;;;;5066074;28;20563;-92
2023/04/30 02:15:02;;;;;;;10.17;9.13;;;12.80;93.90;;;;;;5084354;28;20216;-90
2023/04/30 02:17:28;;;;;;;11.33;10.23;;;12.80;93.30;;;;;;5082525;28;20212;-91
2023/04/30 02:19:53;;;;;;;10.10;9.00;;;12.80;92.80;;;;;;5082572;28;20243;-91
2023/04/30 02:22:19;;;;;;;10.00;9.10;;;12.70;93.50;;;;;;5083159;28;20269;-91
2023/04/30 02:24:45;;;;;;;10.23;9.23;;;12.70;93.70;;;;;;5083297;28;20180;-90
2023/04/30 02:27:11;;;;;;;10.07;9.20;;;12.80;93.70;;;;;;5084015;28;20171;-90
2023/04/30 02:29:36;;;;;;;10.37;9.17;;;12.80;93.20;;;;;;5083466;28;20187;-88
2023/04/30 02:32:02;;;;;;;10.37;9.37;;;12.70;93.50;;;;;;5083095;28;20202;-92
2023/04/30 02:34:28;;;;;;;9.37;8.57;;;12.70;93.70;;;;;;5083887;28;20172;-91
2023/04/30 02:36:53;;;;;;;10.23;9.33;;;12.60;94.70;;;;;;5083819;28;20176;-91
2023/04/30 02:39:19;;;;;;;10.83;9.83;;;12.60;94.90;;;;;;5065798;28;20282;-91
2023/04/30 02:41:45;;;;;;;10.20;9.30;;;12.60;94.80;;;;;;5083482;28;20192;-89
2023/04/30 02:44:11;;;;;;;9.87;9.03;;;12.50;94.90;;;;;;5065532;28;20657;-91
2023/04/30 02:46:36;;;;;;;10.70;9.70;;;12.60;94.90;;;;;;5083663;28;20755;-90
2023/04/30 02:49:02;;;;;;;11.87;9.97;;;12.60;94.20;;;;;;5083162;28;20223;-90
2023/04/30 02:51:28;;;;;;;10.93;10.00;;;12.70;94.20;;;;;;5081857;28;20592;-91
2023/04/30 02:53:54;;;;;;;10.37;9.47;;;12.60;94.10;;;;;;5082717;28;20188;-91
2023/04/30 02:56:20;;;;;;;9.87;9.00;;;12.60;94.20;;;;;;5082019;28;20187;-91
2023/04/30 02:58:46;;;;;;;10.10;9.20;;;12.60;93.90;;;;;;5083271;28;20216;-91
2023/04/30 03:01:12;;;;;;;10.00;9.07;;;12.70;94.10;;;;;;5083672;28;20222;-90
2023/04/30 03:03:38;;;;;;;9.50;8.77;;;12.70;93.50;;;;;;5084897;28;20633;-90
2023/04/30 03:06:04;;;;;;;9.73;8.83;;;12.70;93.80;;;;;;5065747;28;20190;-91
2023/04/30 03:08:30;;;;;;;10.57;9.50;;;12.60;94.00;;;;;;5066334;28;20269;-90
2023/04/30 03:10:55;;;;;;;10.83;9.73;;;12.60;94.00;;;;;;5082520;28;20223;-90
2023/04/30 03:13:24;;;;;;;10.33;9.53;;;12.60;94.20;;;;;;5073158;28;20240;-88
2023/04/30 03:15:57;;;;;;;10.57;9.67;;;12.50;94.40;;;;;;5095994;28;20185;-90
2023/04/30 03:18:22;;;;;;;11.03;9.93;;;12.50;94.90;;;;;;5096588;28;20206;-90
2023/04/30 03:20:48;;;;;;;9.90;9.10;;;12.40;94.60;;;;;;5096757;28;20242;-90
2023/04/30 03:23:14;;;;;;;10.50;9.50;;;12.40;94.50;;;;;;5079397;28;20172;-90
2023/04/30 03:25:39;;;;;;;11.30;10.13;;;12.50;94.90;;;;;;5097007;28;20183;-90
2023/04/30 03:28:05;;;;;;;10.63;9.63;;;12.50;94.00;;;;;;5092996;28;20242;-93
2023/04/30 03:30:31;;;;;;;11.43;10.43;;;12.50;94.20;;;;;;5084031;28;20748;-91
2023/04/30 03:32:57;;;;;;;10.27;9.33;;;12.40;94.00;;;;;;5063791;28;20694;-90
2023/04/30 03:35:23;;;;;;;10.77;9.77;;;12.40;93.70;;;;;;5082621;28;20187;-93
2023/04/30 03:37:48;;;;;;;10.63;9.80;;;12.40;93.90;;;;;;5082134;28;20214;-90
2023/04/30 03:40:14;;;;;;;10.90;9.90;;;12.50;93.70;;;;;;5082381;28;20172;-90
2023/04/30 03:42:40;;;;;;;10.23;9.23;;;12.50;93.50;;;;;;5064659;28;20298;-90
2023/04/30 03:45:06;;;;;;;9.43;8.63;;;12.50;92.80;;;;;;5082167;28;20209;-90
2023/04/30 03:47:32;;;;;;;10.80;9.70;;;12.40;93.10;;;;;;5064315;28;20199;-91
2023/04/30 03:49:58;;;;;;;10.97;10.07;;;12.50;93.30;;;;;;5082328;28;20175;-91
2023/04/30 03:52:25;;;;;;;9.70;8.90;;;12.50;93.40;;;;;;5083186;28;20632;-90
2023/04/30 03:54:52;;;;;;;10.70;9.70;;;12.50;92.90;;;;;;5064267;28;20290;-90
2023/04/30 03:57:18;;;;;;;10.53;9.43;;;12.50;92.50;;;;;;5079887;28;20191;-90
2023/04/30 03:59:43;;;;;;;10.80;9.80;;;12.50;92.60;;;;;;5068603;28;20474;-91
2023/04/30 04:02:09;;;;;;;10.17;9.27;;;12.40;93.00;;;;;;5088608;28;20566;-91
2023/04/30 04:04:35;;;;;;;10.13;9.23;;;12.40;93.30;;;;;;5085751;28;20192;-90
2023/04/30 04:07:02;;;;;;;10.17;9.27;;;12.40;93.50;;;;;;5084414;28;20190;-90
2023/04/30 04:09:28;;;;;;;9.67;8.77;;;12.40;93.10;;;;;;5090973;28;20206;-93
2023/04/30 04:11:53;;;;;;;9.67;8.87;;;12.40;92.90;;;;;;5090874;28;20191;-92
2023/04/30 04:14:19;;;;;;;9.00;8.30;;;12.40;93.60;;;;;;5092159;28;20239;-90
2023/04/30 04:16:45;;;;;;;8.57;7.77;;;12.50;92.70;;;;;;5066753;28;20185;-89
2023/04/30 04:19:14;;;;;;;8.43;7.73;;;12.40;92.00;;;;;;5084943;28;20199;-90
2023/04/30 04:21:39;;;;;;;8.63;7.93;;;12.40;92.30;;;;;;5085263;28;20677;-91
2023/04/30 04:24:07;;;;;;;8.43;7.53;;;12.30;92.70;;;;;;5067090;28;20184;-89
2023/04/30 04:26:36;;;;;;;8.87;8.07;;;12.30;93.10;;;;;;5084906;28;20206;-91
2023/04/30 04:29:07;;;;;;;9.23;8.43;;;12.30;93.80;;;;;;5084051;28;20190;-90
2023/04/30 04:31:33;;;;;;;9.63;8.83;;;12.20;93.60;;;;;;5066123;28;20222;-90
2023/04/30 04:34:00;;;;;;;8.63;7.80;;;12.10;94.10;;;;;;5084146;28;20713;-91
2023/04/30 04:36:29;;;;;;;8.60;7.80;;;12.10;94.60;;;;;;5083794;28;20286;-91
2023/04/30 04:39:01;;;;;;;8.83;8.10;;;12.10;94.60;;;;;;5064923;28;20752;-91
2023/04/30 04:41:28;;;;;;;8.07;7.23;;;12.10;94.70;;;;;;5065304;28;20192;-91
2023/04/30 04:43:55;;;;;;;8.33;7.63;;;12.20;94.10;;;;;;5064450;28;20189;-91
2023/04/30 04:46:22;;;;;;;7.70;7.10;;;12.20;93.90;;;;;;5082336;28;20184;-89
2023/04/30 04:48:48;;;;;;;8.23;7.53;;;12.30;93.50;;;;;;5082477;28;20184;-90
2023/04/30 04:51:13;;;;;;;8.47;7.87;;;12.30;93.70;;;;;;5083168;28;20263;-91
2023/04/30 04:53:39;;;;;;;10.33;9.30;;;12.30;93.10;;;;;;5084237;28;20298;-90
2023/04/30 04:56:06;;;;;;;11.50;10.50;;;12.20;92.90;;;;;;5083629;28;20565;-91
2023/04/30 04:58:34;;;;;;;10.70;9.70;;;12.20;92.80;;;;;;5083148;28;20207;-90
2023/04/30 05:01:01;;;;;;;10.13;9.03;;;12.20;92.70;;;;;;5083747;28;20179;-92
2023/04/30 05:03:28;;;;;;;12.30;11.20;;;12.20;93.00;;;;;;5082550;28;20175;-90
2023/04/30 05:05:54;;;;;;;13.90;12.60;;;12.20;93.00;;;;;;5083453;28;20237;-90
2023/04/30 05:08:20;;;;;;;17.20;14.20;;;12.20;93.10;;;;;;5083216;28;20187;-90
2023/04/30 05:10:46;;;;;;;14.47;13.17;;;12.20;92.40;;;;;;5082517;28;20226;-91
2023/04/30 05:13:13;;;;;;;17.97;16.03;;;12.20;93.10;;;;;;5072708;28;20259;-92
2023/04/30 05:15:39;;;;;;;13.07;11.77;;;12.30;92.80;;;;;;5063008;28;20187;-91
2023/04/30 05:18:05;;;;;;;12.10;11.00;;;12.30;92.20;;;;;;5062278;28;20238;-88
2023/04/30 05:20:30;;;;;;;18.73;16.83;;;12.30;91.10;;;;;;5062491;28;20179;-91
2023/04/30 05:22:56;;;;;;;13.97;12.67;;;12.30;91.30;;;;;;5061670;28;20207;-90
2023/04/30 05:25:22;;;;;;;11.20;10.10;;;12.20;92.10;;;;;;5047078;28;20176;-91
2023/04/30 05:27:48;;;;;;;9.30;8.40;;;12.30;91.90;;;;;;5063418;28;20239;-90
2023/04/30 05:30:16;;;;;;;9.93;9.13;;;12.30;91.10;;;;;;5063568;28;20214;-89
2023/04/30 05:32:42;;;;;;;9.03;8.23;;;12.30;92.00;;;;;;5085060;28;20192;-91
2023/04/30 05:35:08;;;;;;;10.00;9.10;;;12.30;91.20;;;;;;5092227;28;20211;-92
2023/04/30 05:37:34;;;;;;;9.97;9.07;;;12.30;90.90;;;;;;5082563;28;20571;-89
2023/04/30 05:40:00;;;;;;;13.97;9.43;;;12.30;90.80;;;;;;5084086;28;20186;-90
2023/04/30 05:42:26;;;;;;;9.27;8.40;;;12.30;89.90;;;;;;5083623;28;20210;-90
2023/04/30 05:44:51;;;;;;;9.60;8.87;;;12.30;89.80;;;;;;5084440;28;20265;-91
2023/04/30 05:47:17;;;;;;;11.80;9.50;;;12.40;89.30;;;;;;5082036;28;20429;-91
2023/04/30 05:49:43;;;;;;;9.10;8.30;;;12.40;89.00;;;;;;5082594;28;20241;-91
2023/04/30 05:52:08;;;;;;;10.23;9.33;;;12.30;89.20;;;;;;5081789;28;20207;-90
2023/04/30 05:54:35;;;;;;;10.57;9.60;;;12.40;89.10;;;;;;5082458;28;20266;-91
2023/04/30 05:57:00;;;;;;;10.20;9.20;;;12.30;89.00;;;;;;5064396;28;20178;-90
2023/04/30 05:59:26;;;;;;;10.17;9.37;;;12.40;89.30;;;;;;5081642;28;20217;-91
2023/04/30 06:01:52;;;;;;;9.80;8.90;;;12.40;88.40;;;;;;5081022;28;20210;-91
2023/04/30 06:04:17;;;;;;;10.30;9.27;;;12.40;88.20;;;;;;5081511;28;20213;-92
2023/04/30 06:06:43;;;;;;;10.07;9.07;;;12.40;88.50;;;;;;5081136;28;20183;-91
2023/04/30 06:09:10;;;;;;;10.67;9.67;;;12.50;88.40;;;;;;5080524;28;20248;-92
2023/04/30 06:11:36;;;;;;;10.33;9.43;;;12.60;87.40;;;;;;5080821;28;20211;-91
2023/04/30 06:14:03;;;;;;;9.63;8.83;;;12.70;86.90;;;;;;5063214;28;20198;-92
2023/04/30 06:16:29;;;;;;;10.10;9.20;;;12.80;86.90;;;;;;5080816;28;20312;-91
2023/04/30 06:18:55;;;;;;;9.37;8.57;;;12.80;86.60;;;;;;5079805;28;20450;-89
2023/04/30 06:21:24;;;;;;;9.77;8.87;;;12.80;86.20;;;;;;5078390;28;20630;-90
2023/04/30 06:23:51;;;;;;;10.60;9.70;;;12.90;85.40;;;;;;5079246;28;20196;-92
2023/04/30 06:26:18;;;;;;;9.97;8.97;;;12.90;85.70;;;;;;5078202;28;20180;-90
2023/04/30 06:28:44;;;;;;;10.80;9.70;;;13.00;84.10;;;;;;5060100;28;20210;-90
2023/04/30 06:31:09;;;;;;;9.90;8.93;;;13.10;85.30;;;;;;5077444;28;20636;-92
2023/04/30 06:33:35;;;;;;;9.77;8.80;;;13.20;84.10;;;;;;5059882;28;20182;-91
2023/04/30 06:36:01;;;;;;;10.87;9.73;;;13.30;82.20;;;;;;5059026;28;20186;-90
2023/04/30 06:38:29;;;;;;;9.90;9.10;;;13.30;80.90;;;;;;5062827;28;20200;-91
2023/04/30 06:40:54;;;;;;;9.77;8.87;;;13.40;81.30;;;;;;5081709;28;20536;-90
2023/04/30 06:43:20;;;;;;;10.10;9.23;;;13.40;80.60;;;;;;5062167;28;20244;-92
2023/04/30 06:45:46;;;;;;;10.10;9.23;;;13.40;81.50;;;;;;5079157;28;20187;-92
2023/04/30 06:48:12;;;;;;;9.67;8.67;;;13.50;80.20;;;;;;5060709;28;20657;-90
2023/04/30 06:50:43;;;;;;;9.07;8.27;;;13.50;80.60;;;;;;5078136;28;20180;-90
2023/04/30 06:53:10;;;;;;;10.30;9.30;;;13.60;79.90;;;;;;5078416;28;20209;-91
2023/04/30 06:55:36;;;;;;;10.80;9.70;;;13.50;80.60;;;;;;5079954;28;20214;-90
2023/04/30 06:58:01;;;;;;;9.80;9.00;;;13.50;81.20;;;;;;5080127;28;20272;-90
2023/04/30 07:00:27;;;;;;;9.97;9.20;;;13.50;80.60;;;;;;5079361;28;20556;-90
2023/04/30 07:02:53;;;;;;;10.17;9.37;;;13.50;81.10;;;;;;5078598;28;20213;-89
2023/04/30 07:05:18;;;;;;;9.90;9.00;;;13.70;81.80;;;;;;5075674;28;20176;-92
2023/04/30 07:07:44;;;;;;;9.97;9.17;;;13.90;79.60;;;;;;5039707;28;20192;-90
2023/04/30 07:10:10;;;;;;;10.67;9.63;;;14.00;77.70;;;;;;5065387;28;20184;-91
2023/04/30 07:12:36;;;;;;;11.07;9.67;;;14.10;77.60;;;;;;5080637;28;20230;-90
2023/04/30 07:15:02;;;;;;;9.93;9.03;;;14.20;76.50;;;;;;5098293;28;20177;-91
2023/04/30 07:17:28;;;;;;;10.67;9.60;;;14.20;77.20;;;;;;5090245;28;20208;-91
2023/04/30 07:19:53;;;;;;;10.13;9.33;;;14.40;75.50;;;;;;5078191;28;20171;-91
2023/04/30 07:22:19;;;;;;;10.30;9.43;;;14.40;74.70;;;;;;5096562;28;20210;-91
2023/04/30 07:24:45;;;;;;;10.10;9.20;;;14.50;74.10;;;;;;5102445;28;20187;-92
2023/04/30 07:27:10;;;;;;;10.40;9.60;;;14.50;74.30;;;;;;5102590;28;20185;-92
2023/04/30 07:29:36;;;;;;;10.87;9.90;;;14.40;75.80;;;;;;5102125;28;20215;-93
2023/04/30 07:32:02;;;;;;;9.77;8.93;;;14.50;73.60;;;;;;5101764;28;20223;-92
2023/04/30 07:34:28;;;;;;;9.67;8.77;;;14.70;74.20;;;;;;5087449;28;20185;-91
2023/04/30 07:36:54;;;;;;;10.00;9.10;;;14.90;74.40;;;;;;5089343;28;20183;-92
2023/04/30 07:39:19;;;;;;;9.90;9.10;;;15.10;70.90;;;;;;5101841;28;20202;-91
2023/04/30 07:41:45;;;;;;;9.93;9.03;;;15.10;71.60;;;;;;5082474;28;20454;-90
2023/04/30 07:44:11;;;;;;;9.60;8.80;;;15.20;71.80;;;;;;5086110;28;20179;-92
2023/04/30 07:46:40;;;;;;;9.53;8.63;;;15.30;70.30;;;;;;5087475;28;20192;-92
2023/04/30 07:49:14;;;;;;;12.67;9.50;;;15.30;69.10;;;;;;5085961;28;20190;-90
2023/04/30 07:51:41;;;;;;;10.30;9.40;;;15.20;69.20;;;;;;5071021;28;20215;-92
2023/04/30 07:54:08;;;;;;;10.17;9.37;;;15.30;69.90;;;;;;5087895;28;20192;-89
2023/04/30 07:56:35;;;;;;;10.27;9.47;;;15.30;68.80;;;;;;5068158;28;20207;-89
2023/04/30 07:59:00;;;;;;;10.13;9.33;;;15.30;68.90;;;;;;5070675;28;20211;-93
2023/04/30 08:01:26;;;;;;;9.53;8.57;;;15.40;69.20;;;;;;5069155;28;20277;-91
2023/04/30 08:03:52;;;;;;;9.37;8.50;;;15.50;69.70;;;;;;5087306;28;20193;-91
2023/04/30 08:06:18;;;;;;;8.90;8.10;;;15.70;68.20;;;;;;5086944;28;20183;-91
2023/04/30 08:08:44;;;;;;;9.57;8.77;;;15.90;68.30;;;;;;5068452;28;20275;-92
2023/04/30 08:11:11;;;;;;;9.77;8.97;;;16.10;66.60;;;;;;5086434;28;20211;-90
2023/04/30 08:13:37;;;;;;;9.60;8.77;;;16.10;65.40;;;;;;5087515;28;20239;-91
2023/04/30 08:16:05;;;;;;;9.23;8.43;;;16.00;65.20;;;;;;5088800;28;20191;-92
2023/04/30 08:18:31;;;;;;;9.50;8.70;;;16.10;66.00;;;;;;5086541;28;20202;-90
2023/04/30 08:20:58;;;;;;;9.73;8.83;;;16.20;64.40;;;;;;5066971;28;20176;-91
2023/04/30 08:23:27;;;;;;;8.77;7.90;;;16.20;63.10;;;;;;5068755;28;20189;-92
2023/04/30 08:25:55;;;;;;;8.70;7.80;;;16.40;63.70;;;;;;5067530;28;20647;-92
2023/04/30 08:28:21;;;;;;;8.90;8.13;;;16.30;62.50;;;;;;5070484;28;20183;-92
2023/04/30 08:30:46;;;;;;;8.80;8.00;;;16.50;61.70;;;;;;5085633;28;20183;-92
2023/04/30 08:33:15;;;;;;;8.80;7.70;;;16.30;61.00;;;;;;5086373;28;20175;-92
2023/04/30 08:35:41;;;;;;;7.83;7.23;;;16.40;60.60;;;;;;5070424;28;20184;-91
2023/04/30 08:38:07;;;;;;;7.40;6.80;;;16.20;60.00;;;;;;5067726;28;20680;-93
2023/04/30 08:40:35;;;;;;;8.03;7.43;;;16.20;61.00;;;;;;5070554;28;20209;-91
2023/04/30 08:43:11;;;;;;;7.80;7.20;;;16.30;59.60;;;;;;5088198;28;20210;-94
2023/04/30 08:45:38;;;;;;;6.57;6.13;;;16.50;60.30;;;;;;5069144;28;20177;-92
2023/04/30 08:48:04;;;;;;;7.60;6.90;;;16.70;59.20;;;;;;5070574;28;20207;-91
2023/04/30 08:50:31;;;;;;;7.97;6.63;;;16.90;57.40;;;;;;5060073;28;20190;-94
2023/04/30 08:53:03;;;;;;;7.17;6.57;;;17.20;54.20;;;;;;5068099;28;20261;-90
2023/04/30 08:55:32;;;;;;;7.07;6.40;;;17.30;55.00;;;;;;5085094;28;20192;-93
2023/04/30 08:57:58;;;;;;;6.87;6.33;;;17.30;54.40;;;;;;5066643;28;20276;-91
2023/04/30 09:00:26;;;;;;;7.03;6.43;;;17.10;53.90;;;;;;5084967;28;20179;-92
2023/04/30 09:02:52;;;;;;;9.63;6.33;;;17.00;55.10;;;;;;5085446;28;20188;-92
2023/04/30 09:05:18;;;;;;;6.83;6.23;;;17.00;55.00;;;;;;5086543;28;20181;-90
2023/04/30 09:07:48;;;;;;;7.23;6.53;;;17.00;55.50;;;;;;5085124;28;20190;-92
2023/04/30 09:10:18;;;;;;;7.37;6.77;;;17.10;55.60;;;;;;5086794;28;20215;-92
2023/04/30 09:13:06;;;;;;;7.07;6.47;;;17.20;54.40;;;;;;5086482;28;20205;-92
2023/04/30 09:15:40;;;;;;;7.77;7.17;;;17.40;55.40;;;;;;5067298;28;20679;-93
2023/04/30 09:18:18;;;;;;;7.40;6.80;;;17.40;55.40;;;;;;5085005;28;20206;-92
2023/04/30 09:20:57;;;;;;;7.00;6.47;;;17.20;56.00;;;;;;5085378;28;20172;-92
2023/04/30 09:23:23;;;;;;;8.20;6.40;;;17.10;57.30;;;;;;5069008;28;20656;-93
2023/04/30 09:25:50;;;;;;;7.83;7.13;;;17.00;56.30;;;;;;5085260;28;20590;-93
2023/04/30 09:28:15;;;;;;;8.63;6.40;;;16.90;56.10;;;;;;5068137;28;20211;-92
2023/04/30 09:30:42;;;;;;;6.20;5.70;;;16.90;56.30;;;;;;5085371;28;20212;-92
2023/04/30 09:33:08;;;;;;;6.40;5.90;;;17.00;56.20;;;;;;5067571;28;20229;-91
2023/04/30 09:35:37;;;;;;;6.77;6.17;;;16.90;55.20;;;;;;5085541;28;20188;-93
2023/04/30 09:38:03;;;;;;;8.07;7.40;;;16.90;55.30;;;;;;5064973;28;20277;-92
2023/04/30 09:40:39;;;;;;;6.57;6.07;;;16.90;55.90;;;;;;5083166;28;20247;-92
2023/04/30 09:43:06;;;;;;;7.13;6.53;;;16.90;56.10;;;;;;5084011;28;20199;-92
2023/04/30 09:45:51;;;;;;;6.83;6.33;;;16.90;57.20;;;;;;5063707;28;20181;-92
2023/04/30 09:48:24;;;;;;;6.93;6.40;;;17.10;55.30;;;;;;5082580;28;20200;-93
2023/04/30 09:50:50;;;;;;;7.67;6.37;;;17.20;54.70;;;;;;5063038;28;20215;-88
2023/04/30 09:53:16;;;;;;;6.30;5.90;;;17.20;54.50;;;;;;5063754;28;20188;-91
2023/04/30 09:55:46;;;;;;;6.60;6.00;;;17.20;53.90;;;;;;5065219;28;20177;-90
2023/04/30 09:58:15;;;;;;;6.57;6.00;;;17.20;53.90;;;;;;5084022;28;20209;-94
2023/04/30 10:00:42;;;;;;;6.57;6.00;;;17.40;53.10;;;;;;5063911;28;20183;-92
2023/04/30 10:03:09;;;;;;;6.40;5.93;;;17.40;53.40;;;;;;5064549;28;20203;-92
2023/04/30 10:05:43;;;;;;;6.70;6.07;;;17.40;53.10;;;;;;5063690;28;20183;-94
2023/04/30 10:08:26;;;;;;;6.93;5.83;;;17.40;52.50;;;;;;5062573;28;20205;-93
2023/04/30 10:11:01;;;;;;;6.97;6.47;;;17.70;52.60;;;;;;5089879;28;20198;-92
2023/04/30 10:13:32;;;;;;;6.97;6.27;;;17.80;52.60;;;;;;5063501;28;20250;-93
2023/04/30 10:16:02;;;;;;;6.13;5.63;;;18.00;52.30;;;;;;5063509;28;20181;-93
2023/04/30 10:18:33;;;;;;;6.43;5.90;;;18.00;52.30;;;;;;5085220;28;20210;-94
2023/04/30 10:21:02;;;;;;;5.37;4.97;;;18.00;51.00;;;;;;5066687;28;20189;-93
2023/04/30 10:23:30;;;;;;;5.93;5.28;;;17.80;51.20;;;;;;5063417;28;20217;-93
2023/04/30 10:25:56;;;;;;;6.28;5.68;;;18.00;52.30;;;;;;5082247;28;20187;-94
2023/04/30 10:28:24;;;;;;;5.80;5.30;;;18.10;50.40;;;;;;5082257;28;20186;-93
2023/04/30 10:30:51;;;;;;;6.00;5.55;;;18.30;50.80;;;;;;5065871;28;20260;-92
2023/04/30 10:33:54;;;;;;;5.88;5.43;;;18.50;49.00;;;;;;5064439;28;20184;-92
2023/04/30 10:36:32;;;;;;;6.18;5.68;;;18.40;49.20;;;;;;5073938;28;20195;-92
2023/04/30 10:39:00;;;;;;;5.43;5.03;;;18.50;49.40;;;;;;5065018;28;20215;-91
2023/04/30 10:41:27;;;;;;;5.78;5.30;;;18.50;49.70;;;;;;5069266;28;20207;-94
2023/04/30 10:43:58;;;;;;;5.63;5.22;;;18.80;48.10;;;;;;5065261;28;20193;-92
2023/04/30 10:46:24;;;;;;;5.43;4.93;;;18.70;47.20;;;;;;5063870;28;20341;-93
2023/04/30 10:48:53;;;;;;;5.03;4.63;;;18.60;46.80;;;;;;5071060;28;20218;-93
2023/04/30 10:51:20;;;;;;;5.28;4.25;;;18.40;46.50;;;;;;5040120;28;20202;-91
2023/04/30 10:53:50;;;;;;;4.60;4.20;;;18.40;46.40;;;;;;5058894;28;20801;-93
2023/04/30 10:56:32;;;;;;;5.32;4.82;;;18.60;46.30;;;;;;5077140;28;20218;-93
2023/04/30 10:59:01;;;;;;;6.53;4.88;;;18.50;45.30;;;;;;5078225;28;20203;-91
2023/04/30 11:01:28;;;;;;;4.32;4.03;;;18.80;45.90;;;;;;5067509;28;20212;-92
2023/04/30 11:04:08;;;;;;;5.20;4.70;;;18.90;45.90;;;;;;5076777;28;20323;-93
2023/04/30 11:06:55;;;;;;;5.18;4.75;;;18.80;44.50;;;;;;5075538;28;20182;-93
2023/04/30 11:09:35;;;;;;;6.05;5.65;;;18.80;45.20;;;;;;5061102;28;20198;-92
2023/04/30 11:12:02;;;;;;;5.00;4.60;;;18.90;44.30;;;;;;5064775;28;20211;-93
2023/04/30 11:14:32;;;;;;;5.43;5.03;;;19.50;43.70;;;;;;5058265;28;20202;-92
2023/04/30 11:17:02;;;;;;;5.07;4.78;;;19.60;42.30;;;;;;5069230;28;20172;-90
2023/04/30 11:19:28;;;;;;;5.53;5.00;;;19.40;42.80;;;;;;5064625;28;20313;-92
2023/04/30 11:22:04;;;;;;;5.40;4.97;;;19.40;42.70;;;;;;5059035;28;20277;-92
2023/04/30 11:25:08;;;;;;;4.70;4.30;;;19.30;42.70;;;;;;5069460;28;20182;-91
2023/04/30 11:27:45;;;;;;;5.18;4.75;;;19.30;43.00;;;;;;5076481;28;20187;-92
2023/04/30 11:30:14;;;;;;;5.22;4.85;;;19.50;41.30;;;;;;5070067;28;20195;-92
2023/04/30 11:32:42;;;;;;;4.30;4.00;;;19.40;41.60;;;;;;5073210;28;20211;-93
2023/04/30 11:35:09;;;;;;;4.45;4.05;;;19.60;41.40;;;;;;5059979;28;20198;-93
2023/04/30 11:37:39;;;;;;;4.22;3.92;;;19.90;39.60;;;;;;5060081;28;20501;-92
2023/04/30 11:40:07;;;;;;;4.93;4.50;;;20.10;40.40;;;;;;5083201;28;20172;-92
2023/04/30 11:42:33;;;;;;;5.05;4.60;;;20.20;40.00;;;;;;5088713;28;20205;-95
2023/04/30 11:50:59;;;;;;;;;;;;;;;;;;;;;
2023/04/30 11:57:37;;;;;;;4.32;4.07;;;20.30;36.80;;;;;;5021279;28;20759;-93
2023/04/30 12:00:17;;;;;;;4.65;4.20;;;20.40;37.50;;;;;;5061223;28;20196;-90
2023/04/30 12:03:06;;;;;;;;;;;;;;;;;;;;;
2023/04/30 12:05:44;;;;;;;5.07;4.57;;;20.10;39.00;;;;;;5057832;28;20195;-89
2023/04/30 12:09:20;;;;;;;4.38;4.07;;;20.00;37.50;;;;;;5060338;28;20176;-91
2023/04/30 12:11:39;;;;;;;8.20;4.65;;;19.90;38.50;;;;;;5038186;28;20981;-88
2023/04/30 12:14:33;;;;;;;3.95;3.65;;;19.80;38.50;;;;;;5046943;28;20196;-90
2023/04/30 12:16:59;;;;;;;4.35;4.05;;;20.00;39.20;;;;;;5055017;28;20930;-91
2023/04/30 12:19:51;;;;;;;4.38;3.97;;;20.20;38.40;;;;;;5055293;28;20214;-90
2023/04/30 12:23:17;;;;;;;4.43;4.13;;;20.20;38.30;;;;;;5064286;28;20729;-92
2023/04/30 12:25:43;;;;;;;4.40;4.10;;;20.40;37.00;;;;;;4972351;28;20214;-90
2023/04/30 12:29:29;;;;;;;4.43;4.13;;;20.40;37.80;;;;;;5045388;28;20535;-90
2023/04/30 12:32:17;;;;;;;;;;;;;;;;;;;;;
2023/04/30 12:35:00;;;;;;;5.03;4.72;;;20.50;37.10;;;;;;5031172;28;20259;-90
2023/04/30 12:37:45;;;;;;;4.22;3.92;;;20.30;36.80;;;;;;5067898;28;20212;-90
2023/04/30 12:40:26;;;;;;;4.40;4.00;;;20.30;37.10;;;;;;5060329;28;20167;-90
2023/04/30 12:43:37;;;;;;;4.45;4.15;;;20.20;37.60;;;;;;5055459;28;20167;-91
2023/04/30 12:46:29;;;;;;;4.78;4.47;;;20.20;38.10;;;;;;5063175;28;20287;-90
2023/04/30 12:49:01;;;;;;;5.10;4.70;;;20.00;38.20;;;;;;5066062;28;20276;-90
2023/04/30 12:52:15;;;;;;;5.97;4.70;;;19.90;37.60;;;;;;5066003;28;20219;-93
2023/04/30 12:58:34;;;;;;;4.60;4.30;;;19.70;38.60;;;;;;4982251;28;20250;-89
2023/04/30 13:01:29;;;;;;;5.10;4.70;;;19.70;39.10;;;;;;4963685;28;20461;-90
2023/04/30 13:04:23;;;;;;;4.90;4.57;;;20.40;38.60;;;;;;4982719;28;20207;-90
2023/04/30 13:07:20;;;;;;;5.43;5.13;;;21.30;37.50;;;;;;5030227;28;20211;-88
2023/04/30 13:09:46;;;;;;;4.85;4.55;;;21.20;35.80;;;;;;5047282;28;20317;-92
2023/04/30 13:12:13;;;;;;;5.32;5.03;;;21.20;36.60;;;;;;5046746;28;20322;-90
2023/04/30 13:14:39;;;;;;;5.32;4.90;;;21.00;36.10;;;;;;5064312;28;20242;-91